Time;durP1;ratioP1;P1;durP2;ratioP2;P2;SDS_P1;SDS_P2;PMS_P1;PMS_P2;Temp;Humidity;BMP_temperature;BMP_pressure;BME280_temperature;BME280_humidity;BME280_pressure;Samples;Min_cycle;Max_cycle;Signal;HPM_P1;HPM_P2
2022/11/20 00:02:14;;;;;;;25.85;15.45;;;-0.40;99.90;;;;;;6293923;22;20026;-56
2022/11/20 00:04:40;;;;;;;22.00;13.82;;;0.40;99.90;;;;;;6294559;22;20061;-57
2022/11/20 00:07:05;;;;;;;31.00;18.50;;;-0.50;99.90;;;;;;6294162;22;20031;-56
2022/11/20 00:09:31;;;;;;;25.40;14.45;;;-0.50;99.90;;;;;;6294308;22;20031;-57
2022/11/20 00:11:57;;;;;;;24.65;13.98;;;-0.50;99.90;;;;;;6293999;22;20053;-56
2022/11/20 00:14:23;;;;;;;26.80;15.15;;;-0.50;99.90;;;;;;6268181;22;20023;-56
2022/11/20 00:16:48;;;;;;;24.67;14.63;;;-0.50;99.90;;;;;;6293706;22;20023;-55
2022/11/20 00:19:14;;;;;;;22.05;14.95;;;-0.50;99.90;;;;;;6281786;22;20057;-56
2022/11/20 00:21:39;;;;;;;25.83;14.70;;;1.50;99.90;;;;;;6295464;22;20029;-56
2022/11/20 00:24:08;;;;;;;21.02;13.70;;;-0.40;99.90;;;;;;6267033;22;20107;-56
2022/11/20 00:26:34;;;;;;;25.60;15.43;;;-0.40;99.90;;;;;;6294847;22;20108;-56
2022/11/20 00:29:01;;;;;;;23.92;15.93;;;-0.40;99.90;;;;;;6295559;22;20453;-56
2022/11/20 00:31:27;;;;;;;25.77;13.63;;;-0.40;99.90;;;;;;6295693;22;20019;-56
2022/11/20 00:33:53;;;;;;;19.70;12.73;;;-0.30;99.90;;;;;;6294529;22;20019;-56
2022/11/20 00:36:24;;;;;;;22.77;13.07;;;0.60;99.90;;;;;;6295230;22;20026;-56
2022/11/20 00:38:54;;;;;;;20.95;12.70;;;-0.30;99.90;;;;;;6293704;22;20027;-56
2022/11/20 00:41:21;;;;;;;22.15;13.10;;;-0.30;99.90;;;;;;6295101;22;20050;-56
2022/11/20 00:43:48;;;;;;;18.67;12.60;;;-0.20;99.90;;;;;;6295713;22;20094;-56
2022/11/20 00:46:16;;;;;;;20.05;11.52;;;-0.20;99.90;;;;;;6295028;22;20070;-57
2022/11/20 00:48:42;;;;;;;20.58;11.40;;;-0.20;99.90;;;;;;6294609;22;20019;-57
2022/11/20 00:51:08;;;;;;;20.63;10.95;;;-0.20;99.90;;;;;;6294222;22;20031;-57
2022/11/20 00:53:34;;;;;;;19.83;11.52;;;-0.20;99.90;;;;;;6294759;22;20019;-58
2022/11/20 00:56:05;;;;;;;20.33;11.35;;;-0.20;99.90;;;;;;6294379;22;20140;-57
2022/11/20 00:58:33;;;;;;;19.75;10.20;;;-0.20;99.90;;;;;;6295131;22;20027;-56
2022/11/20 01:01:31;;;;;;;17.10;11.48;;;-0.10;99.90;;;;;;6294430;22;20093;-57
2022/11/20 01:03:59;;;;;;;18.27;10.40;;;-0.10;99.90;;;;;;6294179;22;20031;-57
2022/11/20 01:06:33;;;;;;;17.33;10.40;;;-0.10;99.90;;;;;;6294611;22;20023;-57
2022/11/20 01:09:01;;;;;;;17.42;11.88;;;0.00;99.90;;;;;;6294649;22;20094;-57
2022/11/20 01:11:32;;;;;;;17.90;10.10;;;0.00;99.90;;;;;;6294537;22;20034;-56
2022/11/20 01:13:59;;;;;;;16.52;10.32;;;0.00;99.90;;;;;;6294684;22;20043;-56
2022/11/20 01:16:28;;;;;;;19.80;10.97;;;0.00;99.90;;;;;;6244089;22;1170139;-56
2022/11/20 01:18:57;;;;;;;13.10;8.98;;;0.00;99.90;;;;;;6294564;22;20710;-56
2022/11/20 01:21:26;;;;;;;20.67;10.48;;;0.00;99.90;;;;;;6294508;22;20024;-56
2022/11/20 01:23:52;;;;;;;14.10;8.65;;;0.00;99.90;;;;;;6294011;22;20048;-56
2022/11/20 01:26:20;;;;;;;15.38;9.63;;;0.00;99.90;;;;;;6295008;22;20082;-56
2022/11/20 01:28:48;;;;;;;16.00;8.75;;;0.00;99.90;;;;;;6295116;22;20027;-55
2022/11/20 01:31:15;;;;;;;16.23;9.07;;;0.00;99.90;;;;;;6262856;22;20028;-56
2022/11/20 01:33:42;;;;;;;18.60;9.45;;;0.00;99.90;;;;;;6290715;22;20074;-56
2022/11/20 01:36:09;;;;;;;14.82;8.40;;;0.00;99.90;;;;;;6269230;22;20015;-56
2022/11/20 01:38:34;;;;;;;19.65;8.60;;;0.00;99.90;;;;;;6283430;22;20051;-56
2022/11/20 01:41:00;;;;;;;14.55;9.07;;;0.60;99.90;;;;;;6296554;22;20065;-56
2022/11/20 01:43:28;;;;;;;16.90;9.85;;;0.00;99.90;;;;;;6297358;22;20486;-56
2022/11/20 01:45:59;;;;;;;16.92;8.75;;;0.10;99.90;;;;;;6296566;22;20512;-56
2022/11/20 01:48:47;;;;;;;14.30;8.02;;;0.10;99.90;;;;;;6296685;22;20035;-57
2022/11/20 01:51:32;;;;;;;11.93;8.40;;;0.10;99.90;;;;;;6236413;22;20023;-57
2022/11/20 01:54:01;;;;;;;10.60;7.47;;;0.10;99.90;;;;;;6296016;22;20023;-56
2022/11/20 01:56:29;;;;;;;16.45;9.07;;;0.10;99.90;;;;;;6296991;22;20070;-59
2022/11/20 01:59:00;;;;;;;13.82;8.82;;;0.10;99.90;;;;;;6295819;22;20349;-60
2022/11/20 02:01:26;;;;;;;14.88;9.10;;;0.10;99.90;;;;;;6296977;22;20361;-59
2022/11/20 02:03:53;;;;;;;15.80;8.35;;;0.10;99.90;;;;;;6295988;22;20023;-59
2022/11/20 02:09:09;;;;;;;13.93;9.50;;;0.10;99.90;;;;;;6140080;23;20033;-60
2022/11/20 02:11:34;;;;;;;15.82;8.63;;;0.00;99.90;;;;;;6140265;23;20025;-59
2022/11/20 02:14:00;;;;;;;13.82;8.63;;;0.00;99.90;;;;;;6139744;22;20487;-61
2022/11/20 02:16:33;;;;;;;18.65;9.10;;;0.10;99.90;;;;;;6140043;22;20053;-59
2022/11/20 02:19:01;;;;;;;17.80;11.52;;;0.10;99.90;;;;;;6139452;22;20396;-60
2022/11/20 02:21:47;;;;;;;15.82;9.85;;;0.10;99.90;;;;;;6139394;23;20082;-57
2022/11/20 02:24:18;;;;;;;13.10;9.38;;;0.10;99.90;;;;;;6224244;22;20030;-60
2022/11/20 02:27:08;;;;;;;14.68;9.00;;;0.00;99.90;;;;;;6242642;22;20023;-57
2022/11/20 02:29:39;;;;;;;14.45;9.55;;;-0.30;99.90;;;;;;6296284;22;20237;-59
2022/11/20 02:32:04;;;;;;;14.35;9.63;;;0.00;99.90;;;;;;6242499;22;20028;-59
2022/11/20 02:34:30;;;;;;;14.50;9.32;;;0.00;99.90;;;;;;6296435;22;20015;-58
2022/11/20 02:36:57;;;;;;;17.98;9.07;;;0.00;99.90;;;;;;6291972;22;20022;-58
2022/11/20 02:39:25;;;;;;;15.75;8.85;;;0.00;99.90;;;;;;6267332;22;20361;-60
2022/11/20 02:41:52;;;;;;;19.35;11.10;;;0.10;99.90;;;;;;6266621;22;20011;-58
2022/11/20 02:44:18;;;;;;;16.20;9.95;;;0.10;99.90;;;;;;6294310;22;20417;-56
2022/11/20 02:46:47;;;;;;;16.60;9.93;;;0.10;99.90;;;;;;6295513;22;20118;-58
2022/11/20 02:49:13;;;;;;;21.30;9.57;;;0.20;99.90;;;;;;6293917;22;20034;-56
2022/11/20 02:51:38;;;;;;;16.63;9.82;;;0.10;99.90;;;;;;6294337;22;20031;-56
2022/11/20 02:54:04;;;;;;;15.15;10.13;;;0.20;99.90;;;;;;6293726;22;20114;-56
2022/11/20 02:56:30;;;;;;;16.40;9.38;;;0.10;99.90;;;;;;6294418;22;20027;-56
2022/11/20 02:58:56;;;;;;;17.60;10.07;;;0.10;99.90;;;;;;6294162;22;20335;-56
2022/11/20 03:01:22;;;;;;;14.73;8.98;;;0.20;99.90;;;;;;6294613;22;20027;-56
2022/11/20 03:03:52;;;;;;;14.80;8.82;;;0.20;99.90;;;;;;6295034;22;20054;-55
2022/11/20 03:06:17;;;;;;;13.80;9.30;;;0.10;99.90;;;;;;6294516;22;20023;-56
2022/11/20 03:08:43;;;;;;;21.30;10.52;;;0.10;99.90;;;;;;6294615;22;20027;-56
2022/11/20 03:11:13;;;;;;;15.43;8.38;;;0.30;99.90;;;;;;6223057;22;20093;-56
2022/11/20 03:13:38;;;;;;;16.85;9.23;;;0.10;99.90;;;;;;6295279;22;20063;-56
2022/11/20 03:16:10;;;;;;;12.80;8.93;;;0.00;99.90;;;;;;6294124;22;20033;-56
2022/11/20 03:18:35;;;;;;;17.33;9.82;;;0.00;99.90;;;;;;6294748;22;20342;-56
2022/11/20 03:21:01;;;;;;;20.20;9.43;;;0.00;99.90;;;;;;6293264;22;20023;-56
2022/11/20 03:23:29;;;;;;;16.20;10.48;;;0.00;99.90;;;;;;6294162;22;20019;-56
2022/11/20 03:25:55;;;;;;;16.95;9.50;;;0.00;99.90;;;;;;6293359;22;20042;-56
2022/11/20 03:28:21;;;;;;;16.73;9.02;;;0.10;99.90;;;;;;6294443;22;20023;-56
2022/11/20 03:30:48;;;;;;;12.35;8.48;;;1.60;99.90;;;;;;6241661;22;20081;-56
2022/11/20 03:33:13;;;;;;;13.27;8.38;;;0.10;99.90;;;;;;6294537;22;20134;-56
2022/11/20 03:35:39;;;;;;;12.55;8.18;;;0.10;99.90;;;;;;6293871;22;20106;-56
2022/11/20 03:38:05;;;;;;;15.48;9.07;;;0.20;99.90;;;;;;6293559;22;20027;-56
2022/11/20 03:40:31;;;;;;;17.70;9.30;;;0.20;99.90;;;;;;6293247;22;20031;-56
2022/11/20 03:42:56;;;;;;;12.40;8.50;;;0.20;99.90;;;;;;6266466;22;20350;-57
2022/11/20 03:45:22;;;;;;;14.23;8.68;;;0.20;99.90;;;;;;6294131;22;20072;-56
2022/11/20 03:47:48;;;;;;;15.43;9.43;;;0.20;99.90;;;;;;6294315;22;20110;-55
2022/11/20 03:50:14;;;;;;;13.25;8.05;;;0.20;99.90;;;;;;6293963;22;20078;-56
2022/11/20 03:52:40;;;;;;;13.65;8.38;;;0.20;99.90;;;;;;6266240;22;20027;-56
2022/11/20 03:55:06;;;;;;;15.77;8.38;;;0.20;99.90;;;;;;6293162;22;20027;-56
2022/11/20 03:57:32;;;;;;;13.65;8.75;;;0.10;99.90;;;;;;6294094;22;20464;-56
2022/11/20 03:59:58;;;;;;;14.45;8.50;;;0.20;99.90;;;;;;6293896;22;20500;-56
2022/11/20 04:02:23;;;;;;;14.65;9.32;;;0.20;99.90;;;;;;6294230;22;20551;-56
2022/11/20 04:04:49;;;;;;;14.38;10.05;;;0.20;99.90;;;;;;6293347;22;20065;-57
2022/11/20 04:07:15;;;;;;;13.57;8.15;;;0.30;99.90;;;;;;6294325;22;20102;-56
2022/11/20 04:09:40;;;;;;;14.80;7.72;;;0.30;99.90;;;;;;6293854;22;20027;-56
2022/11/20 04:12:06;;;;;;;14.60;8.82;;;0.30;99.90;;;;;;6293347;22;20026;-56
2022/11/20 04:14:32;;;;;;;12.70;8.18;;;0.30;99.90;;;;;;6294094;22;20405;-56
2022/11/20 04:16:57;;;;;;;15.90;9.05;;;2.00;99.90;;;;;;6293418;22;20027;-56
2022/11/20 04:19:23;;;;;;;12.48;8.25;;;0.30;99.90;;;;;;6294449;22;20026;-56
2022/11/20 04:21:49;;;;;;;12.30;7.97;;;0.30;99.90;;;;;;6293876;22;20027;-55
2022/11/20 04:24:14;;;;;;;14.40;9.15;;;0.30;99.90;;;;;;6292515;22;20038;-56
2022/11/20 04:26:40;;;;;;;14.82;8.10;;;0.30;99.90;;;;;;6293338;22;20098;-56
2022/11/20 04:29:06;;;;;;;16.90;8.07;;;0.40;99.90;;;;;;6293331;22;20023;-56
2022/11/20 04:31:34;;;;;;;11.50;8.57;;;0.40;99.90;;;;;;6292829;22;20041;-56
2022/11/20 04:34:01;;;;;;;14.50;8.10;;;0.40;99.90;;;;;;6294022;22;20019;-56
2022/11/20 04:36:28;;;;;;;12.98;7.78;;;0.40;99.90;;;;;;6293971;22;20766;-56
2022/11/20 04:38:56;;;;;;;11.20;7.50;;;0.30;99.90;;;;;;6293264;22;20126;-55
2022/11/20 04:41:23;;;;;;;14.27;8.30;;;0.40;99.90;;;;;;6295217;22;20027;-56
2022/11/20 04:43:50;;;;;;;17.10;8.43;;;0.40;99.90;;;;;;6294442;22;20130;-55
2022/11/20 04:46:17;;;;;;;18.45;8.70;;;0.50;99.90;;;;;;6294531;22;20023;-57
2022/11/20 04:48:43;;;;;;;13.77;7.90;;;0.50;99.90;;;;;;6294800;22;20019;-57
2022/11/20 04:51:09;;;;;;;11.38;8.23;;;0.50;99.90;;;;;;6293781;22;20407;-56
2022/11/20 04:53:35;;;;;;;15.40;8.20;;;0.40;99.90;;;;;;6294657;22;20019;-56
2022/11/20 04:56:05;;;;;;;12.68;8.18;;;0.50;99.90;;;;;;6294713;22;20026;-57
2022/11/20 04:58:32;;;;;;;13.50;7.68;;;0.50;99.90;;;;;;6241676;22;20513;-56
2022/11/20 05:01:22;;;;;;;14.98;9.73;;;0.40;99.90;;;;;;6240720;22;20093;-57
2022/11/20 05:03:48;;;;;;;12.27;6.82;;;0.50;99.90;;;;;;6138653;22;20026;-57
2022/11/20 05:06:16;;;;;;;14.15;8.57;;;0.50;99.90;;;;;;6203261;22;20296;-57
2022/11/20 05:08:42;;;;;;;12.93;7.22;;;0.50;99.90;;;;;;6163177;22;20029;-57
2022/11/20 05:11:10;;;;;;;14.93;8.43;;;0.50;99.90;;;;;;6138584;22;20030;-57
2022/11/20 05:13:37;;;;;;;14.18;8.02;;;0.50;99.90;;;;;;6139331;22;20029;-58
2022/11/20 05:16:11;;;;;;;13.75;8.75;;;0.50;99.90;;;;;;6138099;22;20076;-57
2022/11/20 05:18:37;;;;;;;13.38;8.25;;;0.50;99.90;;;;;;6138218;23;20030;-60
2022/11/20 05:21:04;;;;;;;13.35;8.70;;;0.50;99.90;;;;;;6138795;22;20052;-57
2022/11/20 05:23:31;;;;;;;13.10;7.85;;;0.40;99.90;;;;;;6138945;23;20030;-58
2022/11/20 05:25:58;;;;;;;13.93;8.75;;;0.50;99.90;;;;;;6138332;22;20472;-59
2022/11/20 05:28:24;;;;;;;18.05;9.18;;;0.50;99.90;;;;;;6138891;23;20064;-58
2022/11/20 05:30:50;;;;;;;13.98;8.30;;;0.40;99.90;;;;;;6138376;22;20051;-60
2022/11/20 05:33:16;;;;;;;11.10;8.27;;;0.50;99.90;;;;;;6090684;23;1103224;-56
2022/11/20 05:35:42;;;;;;;13.82;8.38;;;0.50;99.90;;;;;;6138894;23;20053;-56
2022/11/20 05:38:08;;;;;;;14.88;9.40;;;0.40;99.90;;;;;;6138015;23;20083;-56
2022/11/20 05:40:33;;;;;;;14.40;8.35;;;0.40;99.90;;;;;;6138944;23;20134;-56
2022/11/20 05:42:59;;;;;;;14.07;8.25;;;0.40;99.90;;;;;;6138787;22;20065;-56
2022/11/20 05:45:25;;;;;;;12.95;8.45;;;0.50;99.90;;;;;;6215283;22;20110;-56
2022/11/20 05:47:51;;;;;;;11.00;7.30;;;0.50;99.90;;;;;;6154076;22;20101;-56
2022/11/20 05:50:16;;;;;;;14.00;8.27;;;0.40;99.90;;;;;;6138556;23;20117;-57
2022/11/20 05:52:42;;;;;;;10.82;7.13;;;0.40;99.90;;;;;;6138708;23;20356;-56
2022/11/20 05:55:08;;;;;;;14.90;8.68;;;0.40;99.90;;;;;;6265653;22;20030;-56
2022/11/20 05:57:34;;;;;;;13.38;8.05;;;0.40;99.90;;;;;;6294058;22;20401;-56
2022/11/20 05:59:59;;;;;;;13.15;7.82;;;0.30;99.90;;;;;;6293685;22;20042;-56
2022/11/20 06:02:25;;;;;;;13.45;7.30;;;0.40;99.90;;;;;;6294221;22;20027;-56
2022/11/20 06:04:51;;;;;;;11.60;7.40;;;0.40;99.90;;;;;;6293971;22;20454;-57
2022/11/20 06:07:16;;;;;;;12.10;7.40;;;0.40;99.90;;;;;;6294135;22;20038;-57
2022/11/20 06:09:42;;;;;;;13.00;7.07;;;0.40;99.90;;;;;;6294238;22;20023;-57
2022/11/20 06:12:08;;;;;;;11.88;7.20;;;0.40;99.90;;;;;;6294028;22;20023;-57
2022/11/20 06:14:34;;;;;;;13.55;8.13;;;0.40;99.90;;;;;;6293219;22;20030;-56
2022/11/20 06:17:00;;;;;;;11.07;6.88;;;0.40;99.90;;;;;;6295202;22;20034;-56
2022/11/20 06:19:26;;;;;;;12.85;7.63;;;0.40;99.90;;;;;;6296497;22;20031;-57
2022/11/20 06:21:51;;;;;;;12.55;8.23;;;0.40;99.90;;;;;;6296205;22;20102;-56
2022/11/20 06:24:17;;;;;;;16.50;7.97;;;0.40;99.90;;;;;;6268844;22;20424;-56
2022/11/20 06:26:47;;;;;;;12.77;8.10;;;0.40;99.90;;;;;;6295896;22;20026;-57
2022/11/20 06:29:13;;;;;;;12.30;7.97;;;0.40;99.90;;;;;;6290088;22;20027;-58
2022/11/20 06:31:39;;;;;;;11.63;7.65;;;0.40;99.90;;;;;;6289386;22;20025;-57
2022/11/20 06:34:06;;;;;;;11.50;7.63;;;0.40;99.90;;;;;;6295876;22;20110;-57
2022/11/20 06:36:32;;;;;;;12.23;7.32;;;0.40;99.90;;;;;;6295623;22;20480;-56
2022/11/20 06:38:58;;;;;;;12.80;7.38;;;0.40;99.90;;;;;;6295881;22;20025;-57
2022/11/20 06:41:25;;;;;;;10.40;7.40;;;0.40;99.90;;;;;;6296606;22;20027;-56
2022/11/20 06:43:51;;;;;;;15.68;8.65;;;0.40;99.90;;;;;;6295080;22;20500;-57
2022/11/20 06:46:18;;;;;;;15.43;8.35;;;0.40;99.90;;;;;;6295833;22;20122;-58
2022/11/20 06:48:47;;;;;;;14.00;9.35;;;0.40;99.90;;;;;;6296371;22;20030;-56
2022/11/20 06:51:13;;;;;;;11.02;7.47;;;0.40;99.90;;;;;;6139776;22;20389;-56
2022/11/20 06:53:39;;;;;;;13.13;7.63;;;0.40;99.90;;;;;;6236025;22;20027;-57
2022/11/20 06:56:06;;;;;;;14.52;8.02;;;0.30;99.90;;;;;;6295455;22;20027;-58
2022/11/20 06:58:33;;;;;;;13.02;7.78;;;0.40;99.90;;;;;;6290175;22;20089;-57
2022/11/20 07:01:00;;;;;;;13.07;7.95;;;0.40;99.90;;;;;;6293793;22;20441;-58
2022/11/20 07:03:25;;;;;;;13.23;7.85;;;0.40;99.90;;;;;;6294324;22;20034;-58
2022/11/20 07:05:51;;;;;;;17.70;9.18;;;0.30;99.90;;;;;;6293988;22;20023;-57
2022/11/20 07:08:17;;;;;;;11.93;8.18;;;0.40;99.90;;;;;;6293160;22;20038;-57
2022/11/20 07:10:42;;;;;;;14.02;7.82;;;0.40;99.90;;;;;;6294145;22;20023;-58
2022/11/20 07:13:08;;;;;;;13.38;6.90;;;1.40;99.90;;;;;;6292442;22;20027;-58
2022/11/20 07:15:34;;;;;;;14.32;8.60;;;0.40;99.90;;;;;;6292746;22;20039;-57
2022/11/20 07:18:00;;;;;;;12.63;7.82;;;0.40;99.90;;;;;;6291791;22;20488;-58
2022/11/20 07:20:26;;;;;;;11.93;7.75;;;0.40;99.90;;;;;;6291846;22;20169;-57
2022/11/20 07:22:56;;;;;;;16.20;7.72;;;0.50;99.90;;;;;;6264214;22;20501;-56
2022/11/20 07:25:23;;;;;;;13.60;7.60;;;0.50;99.90;;;;;;6284520;22;20019;-57
2022/11/20 07:27:48;;;;;;;13.60;8.40;;;0.50;99.90;;;;;;6291926;22;20080;-57
2022/11/20 07:30:15;;;;;;;15.15;8.10;;;0.50;99.90;;;;;;6295029;22;20141;-57
2022/11/20 07:32:41;;;;;;;12.85;9.27;;;0.50;99.90;;;;;;6293671;22;20019;-61
2022/11/20 07:35:07;;;;;;;13.98;8.52;;;0.50;99.90;;;;;;6265392;22;20023;-57
2022/11/20 07:37:36;;;;;;;13.38;7.85;;;0.60;99.90;;;;;;6266717;22;20100;-55
2022/11/20 07:40:02;;;;;;;11.65;7.35;;;0.50;99.90;;;;;;6292181;22;20027;-57
2022/11/20 07:42:27;;;;;;;13.00;7.80;;;0.60;99.90;;;;;;6295343;22;20023;-57
2022/11/20 07:44:53;;;;;;;13.73;8.52;;;0.60;99.90;;;;;;6294891;22;20121;-56
2022/11/20 07:47:18;;;;;;;16.15;8.85;;;0.60;99.90;;;;;;6294411;22;20034;-56
2022/11/20 07:49:47;;;;;;;9.98;7.53;;;0.70;99.90;;;;;;6294443;22;20027;-57
2022/11/20 07:52:13;;;;;;;12.93;8.55;;;0.60;99.90;;;;;;6294761;22;20030;-57
2022/11/20 07:54:38;;;;;;;12.07;7.60;;;0.70;99.90;;;;;;6293806;22;20027;-57
2022/11/20 07:57:04;;;;;;;11.02;6.88;;;0.70;99.90;;;;;;6294078;22;20070;-59
2022/11/20 07:59:30;;;;;;;11.15;7.22;;;0.60;99.90;;;;;;6294255;22;20069;-58
2022/11/20 08:01:55;;;;;;;12.57;7.30;;;0.70;99.90;;;;;;6293677;22;20080;-57
2022/11/20 08:04:24;;;;;;;12.40;8.05;;;0.70;99.90;;;;;;6294850;22;20050;-57
2022/11/20 08:06:52;;;;;;;13.45;6.95;;;0.70;99.90;;;;;;6294318;22;20050;-57
2022/11/20 08:09:17;;;;;;;11.75;7.15;;;0.70;99.90;;;;;;6293563;22;20084;-57
2022/11/20 08:14:13;;;;;;;12.18;7.43;;;0.80;99.90;;;;;;6234091;22;20673;-57
2022/11/20 08:16:47;;;;;;;10.48;6.70;;;0.80;99.90;;;;;;6289570;22;20069;-57
2022/11/20 08:19:15;;;;;;;10.43;7.20;;;0.90;99.90;;;;;;6280891;22;20080;-57
2022/11/20 08:21:41;;;;;;;15.73;8.30;;;0.90;99.90;;;;;;6291772;22;20023;-58
2022/11/20 08:24:08;;;;;;;12.82;8.25;;;0.90;99.90;;;;;;6290979;22;20100;-61
2022/11/20 08:26:38;;;;;;;11.60;7.60;;;0.90;99.90;;;;;;6294213;22;20125;-59
2022/11/20 08:29:04;;;;;;;9.73;6.32;;;0.90;99.90;;;;;;6290673;22;20046;-59
2022/11/20 08:31:30;;;;;;;12.20;7.43;;;1.00;99.90;;;;;;6291158;22;20033;-59
2022/11/20 08:33:56;;;;;;;10.68;6.63;;;1.00;99.90;;;;;;6265606;22;20031;-60
2022/11/20 08:36:23;;;;;;;14.70;9.02;;;1.10;99.90;;;;;;6293053;22;20023;-61
2022/11/20 08:38:54;;;;;;;10.77;6.90;;;1.10;99.90;;;;;;6292224;22;20027;-60
2022/11/20 08:41:23;;;;;;;13.18;7.13;;;1.20;99.90;;;;;;6290909;22;20027;-56
2022/11/20 08:43:54;;;;;;;14.52;7.57;;;1.20;99.90;;;;;;6289783;22;20038;-55
2022/11/20 08:46:20;;;;;;;11.65;6.78;;;1.20;99.90;;;;;;6289503;22;20027;-57
2022/11/20 08:48:48;;;;;;;12.45;7.47;;;1.30;99.90;;;;;;6291184;22;20024;-55
2022/11/20 08:51:14;;;;;;;13.60;8.35;;;1.30;99.90;;;;;;6262228;22;20028;-57
2022/11/20 08:53:40;;;;;;;10.48;7.07;;;1.30;99.90;;;;;;6292461;22;20026;-57
2022/11/20 08:56:06;;;;;;;10.02;6.57;;;1.30;99.90;;;;;;6290504;22;20365;-57
2022/11/20 08:58:32;;;;;;;14.80;8.13;;;1.40;99.90;;;;;;6292117;22;20137;-56
2022/11/20 09:00:58;;;;;;;9.00;6.60;;;1.40;99.90;;;;;;6292276;22;20098;-56
2022/11/20 09:03:23;;;;;;;10.73;6.82;;;1.50;99.90;;;;;;6237760;22;20056;-57
2022/11/20 09:05:50;;;;;;;11.48;6.97;;;1.50;99.90;;;;;;6265399;22;20172;-56
2022/11/20 09:08:16;;;;;;;10.88;6.68;;;1.50;99.90;;;;;;6262993;22;20023;-57
2022/11/20 09:10:41;;;;;;;13.15;7.25;;;1.50;99.90;;;;;;6292261;22;20029;-57
2022/11/20 09:13:07;;;;;;;17.40;7.47;;;1.60;99.90;;;;;;6291054;22;20452;-57
2022/11/20 09:15:33;;;;;;;12.23;6.82;;;1.60;99.90;;;;;;6293591;22;20019;-56
2022/11/20 09:18:02;;;;;;;12.30;7.82;;;1.70;99.90;;;;;;6239386;22;20020;-56
2022/11/20 09:20:29;;;;;;;18.67;8.90;;;1.70;99.90;;;;;;6292452;22;20049;-57
2022/11/20 09:22:56;;;;;;;13.05;7.97;;;1.80;99.90;;;;;;6263240;22;20065;-56
2022/11/20 09:25:22;;;;;;;10.65;7.07;;;1.90;99.90;;;;;;6291856;22;20027;-57
2022/11/20 09:27:48;;;;;;;12.32;7.38;;;1.90;99.90;;;;;;6292303;22;20113;-55
2022/11/20 09:30:14;;;;;;;11.60;7.22;;;1.90;99.90;;;;;;6293051;22;20110;-57
2022/11/20 09:32:41;;;;;;;12.30;7.38;;;2.00;99.90;;;;;;6292048;22;20708;-57
2022/11/20 09:35:07;;;;;;;11.02;7.40;;;2.10;99.90;;;;;;6292556;22;20076;-57
2022/11/20 09:37:33;;;;;;;14.18;7.63;;;2.00;99.90;;;;;;6292261;22;20462;-57
2022/11/20 09:39:59;;;;;;;11.82;7.80;;;2.00;99.90;;;;;;6291614;22;20032;-57
2022/11/20 09:42:32;;;;;;;10.00;7.00;;;2.10;99.90;;;;;;6291843;22;20334;-59
2022/11/20 09:45:21;;;;;;;12.25;7.63;;;2.00;99.90;;;;;;6290084;22;20081;-58
2022/11/20 09:47:58;;;;;;;9.80;7.30;;;2.10;99.90;;;;;;6290814;22;20027;-59
2022/11/20 09:50:36;;;;;;;10.55;7.03;;;2.00;99.90;;;;;;6292895;22;20023;-57
2022/11/20 09:53:34;;;;;;;9.70;6.43;;;2.10;99.90;;;;;;6290843;22;20394;-57
2022/11/20 09:56:03;;;;;;;11.17;6.47;;;2.20;99.90;;;;;;6243522;22;1092817;-58
2022/11/20 09:58:35;;;;;;;10.52;7.03;;;2.20;99.90;;;;;;6291122;22;20319;-58
2022/11/20 10:01:11;;;;;;;12.13;7.57;;;2.30;99.90;;;;;;6261605;22;20033;-57
2022/11/20 10:03:39;;;;;;;13.60;6.93;;;2.50;99.90;;;;;;6292659;22;20126;-58
2022/11/20 10:06:11;;;;;;;8.80;5.75;;;2.40;99.90;;;;;;6290304;22;20499;-58
2022/11/20 10:08:47;;;;;;;8.23;5.72;;;2.40;99.90;;;;;;6260957;22;20110;-58
2022/11/20 10:11:31;;;;;;;11.02;6.68;;;2.50;99.90;;;;;;6262834;22;20061;-58
2022/11/20 10:14:09;;;;;;;13.68;6.80;;;2.50;99.90;;;;;;6265039;22;20031;-58
2022/11/20 10:16:47;;;;;;;8.98;6.35;;;2.60;99.90;;;;;;6291920;22;20027;-58
2022/11/20 10:19:48;;;;;;;11.60;6.88;;;2.60;99.90;;;;;;6291691;22;20349;-58
2022/11/20 10:22:40;;;;;;;8.52;6.03;;;2.60;99.90;;;;;;6279626;22;20043;-59
2022/11/20 10:25:17;;;;;;;10.07;5.40;;;2.60;99.90;;;;;;6284813;22;20410;-61
2022/11/20 10:27:47;;;;;;;11.82;6.70;;;2.70;99.90;;;;;;6290858;22;20034;-57
2022/11/20 10:30:19;;;;;;;6.60;4.47;;;2.50;99.90;;;;;;6291574;22;20049;-57
2022/11/20 10:32:48;;;;;;;10.38;6.30;;;2.60;99.90;;;;;;6291905;22;20601;-57
2022/11/20 10:35:20;;;;;;;10.52;7.45;;;2.70;99.90;;;;;;6291360;22;20031;-57
2022/11/20 10:38:18;;;;;;;11.40;6.57;;;2.80;99.90;;;;;;6292434;22;20031;-56
2022/11/20 10:43:28;;;;;;;9.90;6.53;;;2.80;99.90;;;;;;6135696;22;20056;-57
2022/11/20 10:45:58;;;;;;;;;;;3.00;99.90;;;;;;6135373;22;20507;-56
2022/11/20 10:48:26;;;;;;;12.63;6.03;;;3.20;99.90;;;;;;6238263;22;19918;-57
2022/11/20 10:51:11;;;;;;;11.10;6.43;;;3.20;99.90;;;;;;6288930;22;20027;-56
2022/11/20 10:56:27;;;;;;;10.57;6.95;;;3.50;99.90;;;;;;6293032;22;20049;-57
2022/11/20 10:59:30;;;;;;;10.45;6.82;;;3.60;99.90;;;;;;6293201;22;20031;-56
2022/11/20 11:01:55;;;;;;;10.98;6.32;;;3.70;99.90;;;;;;6193331;22;20136;-57
2022/11/20 11:04:47;;;;;;;10.02;6.70;;;3.60;99.90;;;;;;6138408;23;20140;-56
2022/11/20 11:07:16;;;;;;;11.88;8.00;;;3.50;99.90;;;;;;6282225;22;20376;-57
2022/11/20 11:09:47;;;;;;;9.60;6.40;;;3.70;99.90;;;;;;6263739;22;20077;-57
2022/11/20 11:12:13;;;;;;;12.52;6.28;;;3.80;99.90;;;;;;6285045;22;20449;-57
2022/11/20 11:17:29;;;;;;;9.52;6.60;;;4.40;99.90;;;;;;6293728;22;20045;-57
2022/11/20 11:20:25;;;;;;;10.00;6.40;;;3.90;99.90;;;;;;6293041;22;20024;-56
2022/11/20 11:22:55;;;;;;;10.18;6.00;;;4.10;99.90;;;;;;6280542;22;20118;-56
2022/11/20 11:25:34;;;;;;;10.77;6.70;;;4.40;99.90;;;;;;6293880;22;20031;-56
2022/11/20 11:28:16;;;;;;;9.57;6.72;;;4.30;99.90;;;;;;6265774;22;20315;-57
2022/11/20 11:33:23;;;;;;;8.38;5.90;;;4.30;99.90;;;;;;6222386;22;20068;-57
2022/11/20 11:35:57;;;;;;;9.27;6.00;;;4.30;99.90;;;;;;6294016;22;20781;-57
2022/11/20 11:38:35;;;;;;;10.30;5.65;;;4.40;99.90;;;;;;6294905;22;20041;-57
2022/11/20 11:41:02;;;;;;;8.32;5.65;;;4.40;99.90;;;;;;6293506;22;20527;-57
2022/11/20 11:46:35;;;;;;;10.70;5.78;;;4.30;99.90;;;;;;6234210;22;20023;-57
2022/11/20 11:49:15;;;;;;;7.72;5.60;;;4.50;99.90;;;;;;6293463;22;20038;-57
2022/11/20 11:51:47;;;;;;;9.45;6.28;;;5.20;99.90;;;;;;6293990;22;20019;-62
2022/11/20 11:54:28;;;;;;;8.77;6.07;;;4.50;99.90;;;;;;6290219;22;20031;-60
2022/11/20 11:56:55;;;;;;;9.85;6.07;;;4.50;99.90;;;;;;6267581;22;20449;-59
2022/11/20 11:59:32;;;;;;;8.32;5.55;;;4.80;99.90;;;;;;6137113;22;20432;-58
2022/11/20 12:02:03;;;;;;;8.60;5.72;;;4.90;99.90;;;;;;6293104;22;20023;-58
2022/11/20 12:07:38;;;;;;;9.02;5.22;;;4.60;99.90;;;;;;6292538;22;20042;-57
2022/11/20 12:10:05;;;;;;;7.68;4.60;;;4.50;99.90;;;;;;6275415;22;20046;-57
2022/11/20 12:15:13;;;;;;;8.02;4.97;;;4.20;99.90;;;;;;6291565;22;20379;-57
2022/11/20 12:17:38;;;;;;;7.53;4.68;;;4.30;99.90;;;;;;6293433;22;20354;-57
2022/11/20 12:20:15;;;;;;;9.18;4.60;;;4.20;99.90;;;;;;6293158;22;20030;-57
2022/11/20 12:25:19;;;;;;;10.00;5.60;;;4.30;99.90;;;;;;6293257;22;20080;-57
2022/11/20 12:28:07;;;;;;;7.38;4.95;;;4.40;99.90;;;;;;6293152;22;20031;-56
2022/11/20 12:30:35;;;;;;;9.25;5.97;;;4.50;99.90;;;;;;6293380;22;20019;-57
2022/11/20 12:33:27;;;;;;;6.63;4.60;;;4.50;99.90;;;;;;6293613;22;20027;-61
2022/11/20 12:36:20;;;;;;;6.63;4.40;;;4.40;99.90;;;;;;6291361;22;20352;-56
2022/11/20 12:39:09;;;;;;;8.70;5.35;;;4.50;99.90;;;;;;6266096;22;20583;-57
2022/11/20 12:47:15;;;;;;;7.53;4.43;;;5.20;99.90;;;;;;6290507;22;20084;-57
2022/11/20 12:52:36;;;;;;;6.63;4.18;;;5.50;99.90;;;;;;6291548;22;20100;-56
2022/11/20 12:55:17;;;;;;;6.30;4.47;;;5.40;99.90;;;;;;6289509;22;20015;-57
2022/11/20 13:00:19;;;;;;;7.25;4.60;;;5.40;99.90;;;;;;6291240;22;20072;-57
2022/11/20 13:05:36;;;;;;;6.10;3.83;;;5.30;99.90;;;;;;6287680;22;20057;-57
2022/11/20 13:08:02;;;;;;;5.72;3.80;;;5.20;99.90;;;;;;6289184;22;20097;-56
2022/11/20 13:13:18;;;;;;;4.30;2.97;;;5.00;99.90;;;;;;6289517;22;20311;-57
2022/11/20 13:16:04;;;;;;;4.63;3.45;;;5.20;99.90;;;;;;6262524;22;20031;-57
2022/11/20 13:18:37;;;;;;;6.22;3.88;;;5.20;99.90;;;;;;6290518;22;20355;-57
2022/11/20 13:21:17;;;;;;;4.60;3.70;;;5.20;99.90;;;;;;6290804;22;20035;-57
2022/11/20 13:23:43;;;;;;;5.03;3.75;;;5.10;99.90;;;;;;6290358;22;20074;-57
2022/11/20 13:26:16;;;;;;;7.22;3.85;;;5.10;99.90;;;;;;6292294;22;20023;-57
2022/11/20 13:28:42;;;;;;;6.63;4.38;;;5.30;99.90;;;;;;6292136;22;20162;-57
2022/11/20 13:31:32;;;;;;;6.93;4.28;;;5.30;99.90;;;;;;6292785;22;20106;-57
2022/11/20 13:33:59;;;;;;;7.55;4.38;;;5.30;99.90;;;;;;6291487;22;20030;-56
2022/11/20 13:36:28;;;;;;;7.20;4.70;;;5.20;99.90;;;;;;6293120;22;20333;-57
2022/11/20 13:38:55;;;;;;;5.63;4.00;;;5.20;99.90;;;;;;6291770;22;20034;-56
2022/11/20 13:41:37;;;;;;;5.60;4.15;;;5.20;99.90;;;;;;6292997;22;20027;-57